Time;durP1;ratioP1;P1;durP2;ratioP2;P2;SDS_P1;SDS_P2;PMS_P1;PMS_P2;Temp;Humidity;BMP_temperature;BMP_pressure;BME280_temperature;BME280_humidity;BME280_pressure;Samples;Min_cycle;Max_cycle;Signal;HPM_P1;HPM_P2
2022/01/20 00:00:43;;;;;;;16.65;2.78;;;3.20;99.90;;;;;;4922927;29;20119;-82
2022/01/20 00:03:14;;;;;;;14.98;2.85;;;3.30;99.90;;;;;;4918032;29;20134;-80
2022/01/20 00:08:51;;;;;;;14.35;2.80;;;3.30;99.90;;;;;;4900135;29;20148;-80
2022/01/20 00:27:56;;;;;;;13.65;2.30;;;3.30;99.90;;;;;;4916267;29;20091;-83
2022/01/20 00:33:13;;;;;;;8.93;1.90;;;3.30;99.90;;;;;;4915957;29;20052;-81
2022/01/20 00:38:15;;;;;;;10.75;1.85;;;3.30;99.90;;;;;;4916088;29;20083;-80
2022/01/20 00:40:41;;;;;;;7.78;1.50;;;3.30;99.90;;;;;;4916141;29;20052;-80
2022/01/20 00:43:07;;;;;;;10.82;1.98;;;3.40;99.90;;;;;;4916028;29;20066;-83
2022/01/20 00:45:32;;;;;;;8.85;1.55;;;3.40;99.90;;;;;;4902602;29;20048;-80
2022/01/20 00:47:58;;;;;;;9.13;1.30;;;3.70;99.90;;;;;;4917246;29;20518;-78
2022/01/20 00:50:24;;;;;;;17.95;2.25;;;3.50;99.90;;;;;;4902335;29;20048;-82
2022/01/20 00:52:51;;;;;;;8.82;1.77;;;3.60;99.90;;;;;;4902543;29;20063;-83
2022/01/20 00:55:17;;;;;;;7.72;1.58;;;3.60;99.90;;;;;;4902355;29;20052;-83
2022/01/20 00:57:42;;;;;;;14.57;2.95;;;3.40;99.90;;;;;;4919237;29;20091;-83
2022/01/20 01:00:10;;;;;;;10.10;1.50;;;3.30;99.90;;;;;;4917796;29;20048;-82
2022/01/20 01:02:36;;;;;;;6.03;1.13;;;3.10;99.90;;;;;;4901653;29;20051;-81
2022/01/20 01:05:04;;;;;;;8.80;1.25;;;3.00;99.90;;;;;;4918876;29;20064;-79
2022/01/20 01:10:34;;;;;;;8.38;1.30;;;2.90;99.90;;;;;;4845431;29;20144;-79
2022/01/20 01:13:05;;;;;;;9.80;2.42;;;2.80;99.90;;;;;;4860334;29;20098;-79
2022/01/20 01:15:36;;;;;;;7.38;1.25;;;2.80;99.90;;;;;;4845494;29;20156;-78
2022/01/20 01:23:25;;;;;;;10.80;1.75;;;2.80;99.90;;;;;;4860515;29;20084;-78
2022/01/20 01:25:51;;;;;;;9.90;1.90;;;2.90;99.90;;;;;;4860179;29;20054;-79
2022/01/20 01:28:18;;;;;;;9.35;1.58;;;2.90;99.90;;;;;;4860305;29;20053;-79
2022/01/20 01:33:35;;;;;;;10.90;1.85;;;2.90;99.90;;;;;;4844645;29;20407;-77
2022/01/20 01:36:03;;;;;;;;;;;2.80;99.90;;;;;;4860667;29;20049;-79
2022/01/20 01:38:36;;;;;;;11.13;1.60;;;2.70;99.90;;;;;;4844772;29;19924;-77
2022/01/20 01:41:16;;;;;;;;;;;2.70;99.90;;;;;;4860427;29;20414;-78
2022/01/20 01:43:47;;;;;;;6.78;0.95;;;2.60;99.90;;;;;;4854755;29;19923;-78
2022/01/20 01:46:14;;;;;;;7.75;0.98;;;2.60;99.90;;;;;;4901263;29;20044;-78
2022/01/20 01:48:41;;;;;;;5.70;0.90;;;2.50;99.90;;;;;;4885610;29;20075;-77
2022/01/20 01:51:08;;;;;;;4.25;0.90;;;2.50;99.90;;;;;;4884589;29;20052;-78
2022/01/20 01:53:34;;;;;;;7.90;1.02;;;2.40;99.90;;;;;;4918053;29;20044;-76
2022/01/20 01:56:00;;;;;;;5.28;1.38;;;2.40;99.90;;;;;;4917024;29;20048;-77
2022/01/20 01:58:26;;;;;;;6.13;1.17;;;2.40;99.90;;;;;;4918060;29;20040;-76
2022/01/20 02:00:52;;;;;;;5.18;1.10;;;2.40;99.90;;;;;;4901290;29;20131;-78
2022/01/20 02:03:17;;;;;;;9.02;2.03;;;2.30;99.90;;;;;;4901092;29;20083;-84
2022/01/20 02:08:44;;;;;;;10.90;1.00;;;2.30;99.90;;;;;;4844153;29;20063;-83
2022/01/20 02:19:26;;;;;;;7.30;2.17;;;2.80;99.90;;;;;;4831084;29;20132;-82
2022/01/20 02:21:55;;;;;;;7.45;1.33;;;2.90;99.90;;;;;;4859314;29;20046;-85
2022/01/20 02:24:21;;;;;;;9.10;1.05;;;3.00;99.90;;;;;;4828896;29;20054;-84
2022/01/20 02:26:47;;;;;;;10.02;1.38;;;3.00;99.90;;;;;;4859225;29;20514;-84
2022/01/20 02:29:13;;;;;;;8.43;1.92;;;3.00;99.90;;;;;;4859186;29;20050;-83
2022/01/20 02:31:39;;;;;;;8.90;1.65;;;3.00;99.90;;;;;;4843759;29;20490;-82
2022/01/20 02:34:10;;;;;;;12.63;1.90;;;3.00;99.90;;;;;;4844113;29;20079;-81
2022/01/20 02:36:37;;;;;;;10.70;2.15;;;3.00;99.90;;;;;;4858536;29;20119;-83
2022/01/20 02:39:42;;;;;;;11.02;1.77;;;3.10;99.90;;;;;;4844005;29;20083;-82
2022/01/20 02:44:54;;;;;;;7.82;1.45;;;3.20;99.90;;;;;;4870178;29;20111;-84
2022/01/20 02:47:26;;;;;;;14.13;2.45;;;3.20;99.90;;;;;;4917187;29;20044;-82
2022/01/20 02:49:52;;;;;;;12.57;2.15;;;3.20;99.90;;;;;;4900263;29;20052;-81
2022/01/20 02:52:19;;;;;;;9.75;1.70;;;3.10;99.90;;;;;;4916631;29;20040;-85
2022/01/20 02:54:44;;;;;;;12.88;1.98;;;3.70;99.90;;;;;;4899816;29;20059;-84
2022/01/20 02:57:10;;;;;;;8.68;1.83;;;3.10;99.90;;;;;;4884844;29;20507;-84
2022/01/20 02:59:38;;;;;;;14.48;2.03;;;3.10;99.90;;;;;;4917183;29;20051;-83
2022/01/20 03:02:05;;;;;;;13.40;2.47;;;3.10;99.90;;;;;;4917097;29;20060;-81
2022/01/20 03:04:31;;;;;;;17.05;2.30;;;3.20;99.90;;;;;;4899939;29;20040;-83
2022/01/20 03:06:58;;;;;;;14.20;2.58;;;3.30;99.90;;;;;;4916690;29;20052;-83
2022/01/20 03:09:24;;;;;;;15.57;2.90;;;3.20;99.90;;;;;;4916428;29;20515;-82
2022/01/20 03:11:50;;;;;;;9.35;2.28;;;3.10;99.90;;;;;;4899786;29;20135;-78
2022/01/20 03:14:17;;;;;;;12.95;1.90;;;3.00;99.90;;;;;;4916844;29;20052;-83
2022/01/20 03:16:46;;;;;;;11.27;2.08;;;2.90;99.90;;;;;;4916877;29;20112;-83
2022/01/20 03:19:12;;;;;;;11.52;1.63;;;3.60;99.90;;;;;;4916400;29;20059;-83
2022/01/20 03:21:42;;;;;;;9.00;1.40;;;2.80;99.90;;;;;;4916772;29;20048;-83
2022/01/20 03:24:09;;;;;;;8.23;1.95;;;2.70;99.90;;;;;;4899247;29;20044;-79
2022/01/20 03:26:35;;;;;;;13.18;2.00;;;2.60;99.90;;;;;;4883745;29;20116;-78
2022/01/20 03:29:02;;;;;;;13.35;1.95;;;2.50;99.90;;;;;;4916762;29;20036;-82
2022/01/20 03:31:30;;;;;;;18.13;3.58;;;2.40;99.90;;;;;;4899517;29;20392;-80
2022/01/20 03:33:55;;;;;;;21.20;3.85;;;2.40;99.90;;;;;;4916320;29;20811;-78
2022/01/20 03:36:21;;;;;;;21.80;3.35;;;2.30;99.90;;;;;;4899513;29;20127;-80
2022/01/20 03:38:47;;;;;;;14.23;2.58;;;2.30;99.90;;;;;;4899640;29;20409;-82
2022/01/20 03:41:13;;;;;;;16.20;2.80;;;2.40;99.90;;;;;;4915972;29;20051;-83
2022/01/20 03:43:38;;;;;;;13.25;3.00;;;2.40;99.90;;;;;;4899491;29;20504;-80
2022/01/20 03:46:09;;;;;;;25.02;3.53;;;2.40;99.90;;;;;;4899182;29;20048;-81
2022/01/20 03:48:38;;;;;;;27.83;3.72;;;2.50;99.90;;;;;;4916363;29;20132;-84
2022/01/20 03:51:05;;;;;;;19.15;3.00;;;2.60;99.90;;;;;;4899064;29;20083;-82
2022/01/20 03:53:38;;;;;;;15.45;2.63;;;2.60;99.90;;;;;;4899641;29;20055;-80
2022/01/20 03:56:05;;;;;;;16.67;3.25;;;2.60;99.90;;;;;;4916378;29;20044;-82
2022/01/20 03:58:31;;;;;;;14.88;2.35;;;2.70;99.90;;;;;;4917527;29;20130;-83
2022/01/20 04:00:56;;;;;;;22.40;3.33;;;2.70;99.90;;;;;;4901804;29;20127;-83
2022/01/20 04:03:23;;;;;;;18.88;3.28;;;2.70;99.90;;;;;;4913240;29;20113;-79
2022/01/20 04:05:58;;;;;;;11.95;2.88;;;2.70;99.90;;;;;;4908504;29;20064;-75
2022/01/20 04:08:26;;;;;;;15.38;2.30;;;2.80;99.90;;;;;;4886741;29;20071;-80
2022/01/20 04:10:52;;;;;;;15.73;2.60;;;2.80;99.90;;;;;;4917392;29;20063;-81
2022/01/20 04:13:18;;;;;;;11.80;2.40;;;2.90;99.90;;;;;;4899471;29;20044;-82
2022/01/20 04:15:44;;;;;;;9.40;1.98;;;2.90;99.90;;;;;;4883542;29;20059;-77
2022/01/20 04:18:13;;;;;;;14.45;2.47;;;2.90;99.90;;;;;;4916321;29;20044;-82
2022/01/20 04:20:40;;;;;;;10.65;1.65;;;2.90;99.90;;;;;;4920086;29;20048;-80
2022/01/20 04:23:06;;;;;;;15.85;2.35;;;2.90;99.90;;;;;;4918664;29;20048;-82
2022/01/20 04:25:31;;;;;;;7.78;1.70;;;2.90;99.90;;;;;;4919979;29;20055;-82
2022/01/20 04:27:57;;;;;;;10.52;1.88;;;2.90;99.90;;;;;;4919298;29;20519;-82
2022/01/20 04:30:23;;;;;;;11.73;1.92;;;2.90;99.90;;;;;;4902674;29;20048;-80
2022/01/20 04:32:48;;;;;;;11.63;1.85;;;2.90;99.90;;;;;;4919649;29;20048;-81
2022/01/20 04:35:18;;;;;;;11.50;1.85;;;3.50;99.90;;;;;;4902765;29;20131;-81
2022/01/20 04:37:44;;;;;;;13.68;2.03;;;2.80;99.90;;;;;;4902196;29;20044;-80
2022/01/20 04:40:10;;;;;;;18.20;2.08;;;2.70;99.90;;;;;;4902601;29;20040;-80
2022/01/20 04:42:38;;;;;;;12.70;2.05;;;2.70;99.90;;;;;;4919291;29;20101;-80
2022/01/20 04:45:08;;;;;;;12.07;2.20;;;2.60;99.90;;;;;;4919452;29;20064;-82
2022/01/20 04:47:48;;;;;;;10.27;2.40;;;2.60;99.90;;;;;;4902218;29;20052;-82
2022/01/20 04:58:26;;;;;;;11.93;2.13;;;2.70;99.90;;;;;;4901579;29;20060;-82
2022/01/20 05:00:52;;;;;;;7.40;1.92;;;2.80;99.90;;;;;;4919200;29;20051;-81
2022/01/20 05:03:17;;;;;;;5.72;1.55;;;3.40;99.90;;;;;;4919196;29;20051;-79
2022/01/20 05:05:43;;;;;;;4.03;0.85;;;2.60;99.90;;;;;;4918861;29;20080;-81
2022/01/20 05:08:09;;;;;;;2.25;1.20;;;2.60;99.90;;;;;;4917962;29;20128;-79
2022/01/20 05:10:35;;;;;;;6.35;1.65;;;2.50;99.90;;;;;;4918929;29;20119;-77
2022/01/20 05:15:28;;;;;;;3.55;1.55;;;2.40;99.90;;;;;;4918325;29;20504;-83
2022/01/20 05:17:54;;;;;;;7.40;1.05;;;2.40;99.90;;;;;;4918908;29;20051;-81
2022/01/20 05:20:20;;;;;;;4.18;1.33;;;2.40;99.90;;;;;;4901796;29;20500;-77
2022/01/20 05:22:46;;;;;;;7.75;0.90;;;2.30;99.90;;;;;;4901901;29;20047;-81
2022/01/20 05:25:11;;;;;;;13.90;2.33;;;2.20;99.90;;;;;;4918409;29;20051;-79
2022/01/20 05:27:37;;;;;;;15.55;2.70;;;2.20;99.90;;;;;;4918802;29;20481;-77
2022/01/20 05:30:04;;;;;;;2.92;0.63;;;2.30;99.90;;;;;;4918083;29;20056;-78
2022/01/20 05:32:29;;;;;;;9.40;1.67;;;2.30;99.90;;;;;;4901581;29;20052;-79
2022/01/20 05:34:55;;;;;;;15.40;0.98;;;2.30;99.90;;;;;;4918619;29;20048;-80
2022/01/20 05:37:21;;;;;;;11.98;1.58;;;2.20;99.90;;;;;;4901542;29;20413;-82
2022/01/20 05:39:46;;;;;;;11.43;1.42;;;2.20;99.90;;;;;;4901383;29;20138;-77
2022/01/20 05:42:12;;;;;;;0.95;0.55;;;2.00;99.90;;;;;;4921635;29;20547;-79
2022/01/20 05:44:38;;;;;;;8.25;0.98;;;2.00;99.90;;;;;;4923413;29;20396;-78
2022/01/20 05:47:09;;;;;;;4.43;1.00;;;1.90;99.90;;;;;;4921302;29;20052;-82
2022/01/20 05:49:35;;;;;;;2.85;1.02;;;1.90;99.90;;;;;;4905201;29;20055;-83
2022/01/20 05:52:01;;;;;;;8.15;1.70;;;2.00;99.90;;;;;;4919425;29;20500;-78
2022/01/20 05:54:27;;;;;;;10.43;1.52;;;2.00;99.90;;;;;;4918107;29;20044;-82
2022/01/20 05:56:53;;;;;;;7.43;1.05;;;2.00;99.90;;;;;;4916876;29;20052;-80
2022/01/20 05:59:19;;;;;;;9.50;2.20;;;2.00;99.90;;;;;;4901102;29;20139;-80
2022/01/20 06:01:53;;;;;;;5.20;1.02;;;2.00;99.90;;;;;;4917593;29;20134;-78
2022/01/20 06:04:19;;;;;;;8.18;0.70;;;1.90;99.90;;;;;;4900641;29;20052;-79
2022/01/20 06:06:45;;;;;;;2.85;1.48;;;1.90;99.90;;;;;;4900047;29;20144;-78
2022/01/20 06:09:11;;;;;;;1.58;0.82;;;2.90;99.90;;;;;;4917762;29;20461;-78
2022/01/20 06:11:37;;;;;;;17.25;1.40;;;1.80;99.90;;;;;;4918154;29;20044;-79
2022/01/20 06:14:04;;;;;;;1.10;0.55;;;2.40;99.90;;;;;;4918060;29;20055;-79
2022/01/20 06:16:31;;;;;;;8.20;1.13;;;1.70;99.90;;;;;;4901114;29;20485;-80
2022/01/20 06:18:56;;;;;;;1.27;0.43;;;1.70;99.90;;;;;;4917356;29;20099;-79
2022/01/20 06:21:22;;;;;;;5.28;1.42;;;1.70;99.90;;;;;;4917449;29;20048;-77
2022/01/20 06:23:49;;;;;;;7.95;0.80;;;1.80;99.90;;;;;;4917791;29;20072;-77
2022/01/20 06:26:15;;;;;;;12.77;1.52;;;1.90;99.90;;;;;;4917320;29;20050;-77
2022/01/20 06:28:41;;;;;;;10.80;1.73;;;1.90;99.90;;;;;;4917765;29;20048;-78
2022/01/20 06:31:07;;;;;;;13.30;2.22;;;1.90;99.90;;;;;;4917854;29;20196;-76
2022/01/20 06:33:33;;;;;;;8.52;1.35;;;1.80;99.90;;;;;;4900091;29;20048;-78
2022/01/20 06:35:59;;;;;;;9.23;1.50;;;1.70;99.90;;;;;;4917257;29;20051;-78
2022/01/20 06:38:25;;;;;;;11.32;2.88;;;1.40;99.90;;;;;;4917302;29;20056;-77
2022/01/20 06:40:51;;;;;;;16.33;2.17;;;1.60;99.90;;;;;;4900175;29;20139;-78
2022/01/20 06:43:17;;;;;;;14.13;2.08;;;1.60;99.90;;;;;;4916974;29;20518;-78
2022/01/20 06:45:42;;;;;;;11.68;1.80;;;2.20;99.90;;;;;;4917294;29;20108;-78
2022/01/20 06:48:08;;;;;;;8.75;1.80;;;1.60;99.90;;;;;;4917366;29;20059;-78
2022/01/20 06:50:34;;;;;;;15.45;2.30;;;1.60;99.90;;;;;;4916661;29;20044;-78
2022/01/20 06:53:00;;;;;;;20.92;2.13;;;1.50;99.90;;;;;;4917140;29;20044;-78
2022/01/20 06:55:25;;;;;;;11.10;2.78;;;1.50;99.90;;;;;;4916917;29;20058;-78
2022/01/20 06:57:51;;;;;;;12.07;2.47;;;1.50;99.90;;;;;;4916927;29;20090;-78
2022/01/20 07:00:19;;;;;;;11.85;2.67;;;1.50;99.90;;;;;;4917255;29;20390;-79
2022/01/20 07:02:46;;;;;;;9.27;1.90;;;1.60;99.90;;;;;;4917354;29;20413;-76
2022/01/20 07:05:15;;;;;;;18.85;2.58;;;2.00;99.90;;;;;;4916181;29;20405;-77
2022/01/20 07:07:41;;;;;;;20.75;2.80;;;1.60;99.90;;;;;;4899548;29;20067;-76
2022/01/20 07:10:08;;;;;;;11.90;2.20;;;1.70;99.90;;;;;;4917102;29;20051;-78
2022/01/20 07:12:33;;;;;;;12.85;1.80;;;1.80;99.90;;;;;;4916729;29;20055;-78
2022/01/20 07:14:59;;;;;;;20.33;2.50;;;1.90;99.90;;;;;;4916806;29;20063;-79
2022/01/20 07:17:25;;;;;;;12.38;1.98;;;2.00;99.90;;;;;;4899592;29;20059;-79
2022/01/20 07:19:50;;;;;;;8.30;1.63;;;2.30;99.90;;;;;;4916549;29;20515;-75
2022/01/20 07:22:16;;;;;;;6.97;1.30;;;2.30;99.90;;;;;;4923874;29;20054;-78
2022/01/20 07:24:42;;;;;;;10.85;1.80;;;2.00;99.90;;;;;;4926654;29;20035;-76
2022/01/20 07:27:08;;;;;;;12.80;1.40;;;1.70;99.90;;;;;;4925429;29;20396;-78
2022/01/20 07:29:34;;;;;;;8.65;2.10;;;3.00;99.90;;;;;;4935705;29;20048;-76
2022/01/20 07:32:02;;;;;;;5.45;1.23;;;1.30;99.90;;;;;;4918160;29;20500;-78
2022/01/20 07:34:29;;;;;;;5.53;1.17;;;1.20;99.90;;;;;;4902816;29;20103;-80
2022/01/20 07:36:55;;;;;;;10.43;1.60;;;1.20;99.90;;;;;;4935411;29;20455;-78
2022/01/20 07:39:20;;;;;;;5.80;1.13;;;1.20;99.90;;;;;;4918072;29;20059;-79
2022/01/20 07:41:46;;;;;;;10.38;1.40;;;1.20;99.90;;;;;;4918435;29;20047;-79
2022/01/20 07:44:12;;;;;;;12.68;2.08;;;1.20;99.90;;;;;;4918535;29;20047;-76
2022/01/20 07:46:38;;;;;;;14.68;1.90;;;1.20;99.90;;;;;;4918381;29;20063;-75
2022/01/20 07:49:04;;;;;;;8.25;2.17;;;1.20;99.90;;;;;;4915493;29;20055;-77
2022/01/20 07:51:33;;;;;;;7.35;1.60;;;1.30;99.90;;;;;;4920902;29;20052;-80
2022/01/20 07:53:58;;;;;;;13.43;2.63;;;3.00;99.90;;;;;;4926526;29;20100;-77
2022/01/20 07:56:25;;;;;;;11.38;2.88;;;2.60;99.90;;;;;;4931394;29;20043;-74
2022/01/20 07:58:50;;;;;;;18.00;2.92;;;1.70;99.90;;;;;;4936469;29;20075;-71
2022/01/20 08:01:16;;;;;;;18.10;2.75;;;1.60;99.90;;;;;;4941711;29;20051;-73
2022/01/20 08:03:42;;;;;;;17.30;2.42;;;1.50;99.90;;;;;;4952373;29;20043;-72
2022/01/20 08:06:07;;;;;;;15.75;3.17;;;1.40;99.90;;;;;;4953499;29;20056;-73
2022/01/20 08:08:33;;;;;;;16.75;2.20;;;1.40;99.90;;;;;;4911116;29;20448;-74
2022/01/20 08:10:59;;;;;;;13.18;2.08;;;1.30;99.90;;;;;;4923592;29;20043;-75
2022/01/20 08:13:25;;;;;;;11.48;3.58;;;1.40;99.90;;;;;;4920951;29;20491;-74
2022/01/20 08:15:51;;;;;;;21.92;3.40;;;1.30;99.90;;;;;;4921458;29;20060;-76
2022/01/20 08:18:17;;;;;;;17.95;2.30;;;1.40;99.90;;;;;;4937076;29;20052;-79
2022/01/20 08:20:42;;;;;;;16.25;2.42;;;1.40;99.90;;;;;;4937045;29;20046;-75
2022/01/20 08:23:08;;;;;;;17.23;2.78;;;1.50;99.90;;;;;;4919959;29;20044;-74
2022/01/20 08:25:34;;;;;;;18.92;2.97;;;1.50;99.90;;;;;;4919247;29;20131;-75
2022/01/20 08:28:00;;;;;;;15.45;2.53;;;1.50;99.90;;;;;;4919959;29;20056;-75
2022/01/20 08:30:26;;;;;;;15.23;2.80;;;1.60;99.90;;;;;;4919861;29;20055;-76
2022/01/20 08:32:52;;;;;;;16.77;2.35;;;1.70;99.90;;;;;;4937025;29;20047;-74
2022/01/20 08:35:20;;;;;;;10.27;2.33;;;1.80;99.90;;;;;;4919877;29;20372;-75
2022/01/20 08:37:46;;;;;;;13.98;2.05;;;2.60;99.90;;;;;;4936512;29;20495;-75
2022/01/20 08:40:15;;;;;;;9.30;1.75;;;2.90;99.90;;;;;;4936423;29;20106;-75
2022/01/20 08:42:42;;;;;;;15.25;2.00;;;2.00;99.90;;;;;;4919377;29;20125;-76
2022/01/20 08:45:09;;;;;;;14.85;3.03;;;2.00;99.90;;;;;;4919921;29;20055;-77
2022/01/20 08:47:35;;;;;;;10.77;2.00;;;2.10;99.90;;;;;;4937982;29;20090;-75
2022/01/20 08:50:03;;;;;;;10.88;2.13;;;2.10;99.90;;;;;;4938273;29;20080;-78
2022/01/20 08:52:29;;;;;;;13.82;2.67;;;3.10;99.90;;;;;;4928446;29;20040;-72
2022/01/20 08:54:57;;;;;;;17.60;2.20;;;2.20;99.90;;;;;;4933683;29;20095;-79
2022/01/20 08:57:27;;;;;;;12.82;2.97;;;2.30;99.90;;;;;;4937581;29;20517;-72
2022/01/20 08:59:53;;;;;;;13.35;2.53;;;2.30;99.90;;;;;;4937754;29;20088;-78
2022/01/20 09:02:19;;;;;;;16.38;2.53;;;2.30;99.90;;;;;;4937245;29;20059;-77
2022/01/20 09:04:45;;;;;;;15.73;2.92;;;2.30;99.90;;;;;;4919101;29;20055;-70
2022/01/20 09:07:11;;;;;;;17.60;2.83;;;2.40;99.90;;;;;;4919997;29;20063;-74
2022/01/20 09:09:45;;;;;;;14.82;2.47;;;2.50;99.90;;;;;;4918520;29;20415;-73
2022/01/20 09:17:26;;;;;;;12.88;2.47;;;2.30;99.90;;;;;;4936595;29;20146;-77
2022/01/20 09:19:52;;;;;;;11.32;2.42;;;2.70;99.90;;;;;;4919054;29;20058;-68
2022/01/20 09:22:19;;;;;;;12.02;2.10;;;2.80;99.90;;;;;;4936347;29;20381;-71
2022/01/20 09:24:45;;;;;;;11.77;1.90;;;2.80;99.90;;;;;;4919789;29;20051;-72
2022/01/20 09:27:12;;;;;;;12.95;3.00;;;3.40;99.90;;;;;;4918780;29;20070;-77
2022/01/20 09:29:38;;;;;;;14.63;2.05;;;2.80;99.90;;;;;;4936394;29;20047;-77
2022/01/20 09:32:06;;;;;;;9.82;1.70;;;2.80;99.90;;;;;;4936782;29;20470;-74
2022/01/20 09:34:32;;;;;;;12.48;2.00;;;2.90;99.90;;;;;;4936297;29;20079;-76
2022/01/20 09:36:58;;;;;;;15.15;3.08;;;2.90;99.90;;;;;;4919084;29;20546;-78
2022/01/20 09:39:24;;;;;;;8.90;2.00;;;2.90;99.90;;;;;;4935496;29;20039;-73
2022/01/20 09:41:49;;;;;;;10.77;1.98;;;2.90;99.90;;;;;;4918900;29;20055;-75
2022/01/20 09:44:16;;;;;;;12.57;2.03;;;3.00;99.90;;;;;;4918548;29;20063;-71
2022/01/20 09:46:44;;;;;;;8.50;2.00;;;3.00;99.90;;;;;;4917908;29;20063;-75
2022/01/20 09:49:11;;;;;;;9.35;1.90;;;3.00;99.90;;;;;;4902898;29;20407;-75
2022/01/20 09:51:37;;;;;;;13.27;1.80;;;3.10;99.90;;;;;;4917616;29;20103;-75
2022/01/20 09:54:04;;;;;;;8.90;2.15;;;3.20;99.90;;;;;;4936018;29;20052;-75
2022/01/20 09:56:31;;;;;;;16.92;2.20;;;3.40;99.90;;;;;;4902677;29;20101;-77
2022/01/20 09:58:59;;;;;;;11.82;2.40;;;3.50;99.90;;;;;;4935370;29;20051;-73
2022/01/20 10:01:45;;;;;;;11.27;2.05;;;3.50;99.90;;;;;;4935516;29;20125;-69
2022/01/20 10:04:18;;;;;;;10.85;2.30;;;3.50;99.90;;;;;;4918642;29;20078;-69
2022/01/20 10:07:02;;;;;;;15.93;3.17;;;3.40;99.90;;;;;;4933146;29;20060;-71
2022/01/20 10:09:45;;;;;;;16.23;2.22;;;3.30;99.90;;;;;;4902897;29;20098;-72
2022/01/20 10:12:14;;;;;;;13.80;2.05;;;3.30;99.90;;;;;;4935553;29;20043;-71
2022/01/20 10:14:45;;;;;;;14.73;1.98;;;3.30;99.90;;;;;;4935172;29;20492;-72
2022/01/20 10:17:23;;;;;;;10.88;2.03;;;3.20;99.90;;;;;;4918111;29;20059;-77
2022/01/20 10:19:54;;;;;;;8.20;1.85;;;3.20;99.90;;;;;;4919138;29;20040;-78
2022/01/20 10:22:23;;;;;;;9.68;1.90;;;3.20;99.90;;;;;;4918905;29;20067;-77
2022/01/20 10:25:08;;;;;;;12.65;1.92;;;3.10;99.90;;;;;;4936581;29;20054;-72
2022/01/20 10:27:52;;;;;;;11.35;1.98;;;3.20;99.90;;;;;;4919312;29;20040;-74
2022/01/20 10:30:19;;;;;;;14.50;1.90;;;3.20;99.90;;;;;;4917315;29;20079;-78
2022/01/20 10:32:47;;;;;;;11.48;1.98;;;3.20;99.90;;;;;;4913455;29;20056;-80
2022/01/20 10:35:16;;;;;;;12.25;2.30;;;3.20;99.90;;;;;;4880603;29;20045;-79
2022/01/20 10:37:58;;;;;;;14.63;2.42;;;3.30;99.90;;;;;;4875930;29;20104;-77
2022/01/20 10:40:23;;;;;;;12.98;2.20;;;3.40;99.90;;;;;;4889036;29;20056;-78
2022/01/20 10:42:49;;;;;;;14.50;2.00;;;3.40;99.90;;;;;;4880445;29;20053;-77
2022/01/20 10:45:26;;;;;;;11.82;2.10;;;3.60;99.90;;;;;;4882860;29;20552;-75
2022/01/20 10:47:55;;;;;;;9.57;2.17;;;3.70;99.90;;;;;;4917146;29;20039;-78
2022/01/20 10:50:27;;;;;;;13.95;2.05;;;4.60;99.90;;;;;;4925068;29;20050;-78
2022/01/20 10:52:53;;;;;;;10.98;2.70;;;3.90;99.90;;;;;;4922406;29;20453;-75
2022/01/20 10:55:32;;;;;;;11.80;2.05;;;5.10;99.90;;;;;;4903659;29;20050;-75
2022/01/20 10:58:13;;;;;;;10.95;2.05;;;3.90;99.90;;;;;;4922694;29;20043;-84
2022/01/20 11:00:46;;;;;;;14.05;3.28;;;3.60;99.90;;;;;;4930740;29;20048;-85
2022/01/20 11:03:13;;;;;;;9.75;2.65;;;3.40;99.90;;;;;;4920291;29;20040;-76
2022/01/20 11:05:41;;;;;;;21.65;2.80;;;3.30;99.90;;;;;;4928408;29;20453;-79
2022/01/20 11:08:07;;;;;;;13.57;2.30;;;3.20;99.90;;;;;;4898912;29;20056;-78
2022/01/20 11:10:33;;;;;;;11.68;2.55;;;3.10;99.90;;;;;;4914699;29;20044;-76
2022/01/20 11:12:59;;;;;;;10.02;2.53;;;3.10;99.90;;;;;;4923634;29;20504;-76
2022/01/20 11:15:28;;;;;;;11.77;1.90;;;3.20;99.90;;;;;;4915883;29;20099;-78
2022/01/20 11:17:56;;;;;;;9.40;1.95;;;3.20;99.90;;;;;;4905437;29;20471;-78
2022/01/20 11:20:29;;;;;;;6.78;1.33;;;3.40;99.90;;;;;;4934782;29;20051;-79
2022/01/20 11:23:07;;;;;;;11.10;1.45;;;3.40;99.90;;;;;;4935012;29;20040;-77
2022/01/20 11:25:35;;;;;;;7.35;1.38;;;4.90;99.90;;;;;;4931619;29;20048;-79
2022/01/20 11:28:16;;;;;;;12.95;2.22;;;3.80;99.90;;;;;;4904144;29;20188;-79
2022/01/20 11:30:59;;;;;;;8.73;1.58;;;3.70;99.90;;;;;;4907486;29;20392;-76
2022/01/20 11:33:41;;;;;;;11.05;1.60;;;3.70;99.90;;;;;;4918537;29;20051;-78
2022/01/20 11:36:22;;;;;;;9.82;2.00;;;3.80;99.90;;;;;;4926259;29;20067;-79
2022/01/20 11:38:50;;;;;;;10.00;1.58;;;3.90;99.90;;;;;;4934500;29;20762;-77
2022/01/20 11:41:17;;;;;;;11.10;1.63;;;3.90;99.90;;;;;;4926769;29;20082;-79
2022/01/20 11:43:51;;;;;;;8.50;1.77;;;3.90;99.90;;;;;;4924020;29;20456;-77
2022/01/20 11:46:23;;;;;;;11.32;1.98;;;4.00;99.90;;;;;;4906537;29;20059;-76
2022/01/20 11:48:48;;;;;;;9.68;2.22;;;4.00;99.90;;;;;;4923282;29;20051;-75
2022/01/20 11:51:17;;;;;;;14.82;2.28;;;4.10;99.90;;;;;;4906403;29;20044;-76
2022/01/20 11:53:54;;;;;;;13.00;2.30;;;4.30;99.90;;;;;;4920472;29;20119;-80
2022/01/20 12:01:49;;;;;;;11.38;2.08;;;4.00;99.90;;;;;;5127991;23;20048;-76
2022/01/20 12:04:16;;;;;;;9.30;1.50;;;3.80;99.90;;;;;;4917234;29;20051;-78
2022/01/20 12:06:43;;;;;;;7.65;1.70;;;3.10;99.90;;;;;;4925832;29;20048;-86
2022/01/20 12:09:09;;;;;;;9.07;1.50;;;3.70;99.90;;;;;;4935528;29;20058;-81
2022/01/20 12:11:40;;;;;;;13.27;2.08;;;3.80;99.90;;;;;;4948489;29;20114;-79
2022/01/20 12:14:06;;;;;;;7.40;1.50;;;3.90;99.90;;;;;;4946139;29;20062;-84
2022/01/20 12:16:34;;;;;;;12.77;1.90;;;4.40;99.90;;;;;;4946669;29;20054;-82
2022/01/20 12:19:01;;;;;;;12.40;2.22;;;4.10;99.90;;;;;;4928383;29;20111;-84
2022/01/20 12:21:30;;;;;;;12.00;1.92;;;4.00;99.90;;;;;;4933983;29;20044;-83
2022/01/20 12:23:56;;;;;;;18.88;3.00;;;4.10;99.90;;;;;;4926250;29;20071;-79
2022/01/20 12:26:23;;;;;;;25.15;5.90;;;4.20;99.90;;;;;;4927938;29;20055;-86
2022/01/20 12:29:05;;;;;;;13.93;2.13;;;4.80;99.90;;;;;;4920750;29;20139;-86
2022/01/20 12:31:31;;;;;;;8.77;1.67;;;4.20;99.90;;;;;;4909130;29;20131;-86
2022/01/20 12:33:57;;;;;;;7.97;1.20;;;4.10;99.90;;;;;;4939348;29;20059;-86
2022/01/20 12:36:23;;;;;;;7.60;1.50;;;3.90;99.90;;;;;;4942045;29;20047;-86
2022/01/20 12:38:52;;;;;;;9.70;1.80;;;3.70;99.90;;;;;;4912988;29;20188;-79
2022/01/20 12:41:23;;;;;;;6.85;1.50;;;3.70;99.90;;;;;;4924732;29;20058;-79
2022/01/20 12:43:53;;;;;;;5.18;0.90;;;3.70;99.90;;;;;;4936933;29;20054;-86
2022/01/20 12:46:31;;;;;;;4.45;0.98;;;3.70;99.90;;;;;;4939825;29;20051;-86
2022/01/20 12:49:17;;;;;;;7.40;1.05;;;3.60;99.90;;;;;;4916931;29;20103;-86
2022/01/20 12:51:53;;;;;;;10.75;2.03;;;3.70;99.90;;;;;;4935566;29;20052;-86
2022/01/20 12:54:27;;;;;;;11.18;1.27;;;3.80;99.90;;;;;;4935820;29;20052;-85
2022/01/20 12:57:13;;;;;;;9.05;1.70;;;3.80;99.90;;;;;;4944222;29;20439;-82
2022/01/20 12:59:42;;;;;;;14.25;1.48;;;3.90;99.90;;;;;;4947256;29;20099;-79
2022/01/20 13:02:19;;;;;;;9.73;1.75;;;4.00;99.90;;;;;;4909924;29;20062;-76
2022/01/20 13:04:46;;;;;;;11.50;1.70;;;4.10;99.90;;;;;;4915324;29;20748;-77
2022/01/20 13:07:16;;;;;;;16.02;2.10;;;4.10;99.90;;;;;;4916726;29;20056;-75
2022/01/20 13:09:43;;;;;;;8.80;1.75;;;4.20;99.90;;;;;;4951962;29;20075;-75
2022/01/20 13:12:15;;;;;;;13.95;2.08;;;4.70;99.90;;;;;;4941160;29;20058;-75
2022/01/20 13:14:41;;;;;;;14.90;2.05;;;4.40;99.90;;;;;;4918302;29;20044;-77
2022/01/20 13:17:09;;;;;;;17.67;2.60;;;4.40;99.90;;;;;;4932683;29;20075;-77
2022/01/20 13:19:46;;;;;;;8.32;1.75;;;4.40;99.90;;;;;;4952320;29;20047;-77
2022/01/20 13:25:15;;;;;;;12.27;2.00;;;4.40;99.90;;;;;;4934955;29;20531;-77
2022/01/20 13:27:57;;;;;;;14.25;2.35;;;4.30;99.90;;;;;;4952142;29;20552;-77
2022/01/20 13:30:40;;;;;;;;;;;4.30;99.90;;;;;;4950119;29;20059;-76
2022/01/20 13:33:17;;;;;;;16.30;3.50;;;4.30;99.90;;;;;;4935518;29;19941;-73
2022/01/20 13:35:54;;;;;;;14.27;2.33;;;4.30;99.90;;;;;;4953003;29;20054;-75
2022/01/20 13:38:20;;;;;;;14.15;3.15;;;4.20;99.90;;;;;;4952608;29;20055;-77
2022/01/20 13:40:47;;;;;;;13.07;2.38;;;4.00;99.90;;;;;;4929111;29;20477;-78
2022/01/20 13:46:04;;;;;;;15.55;2.80;;;3.70;99.90;;;;;;4940662;29;20079;-76
2022/01/20 13:48:34;;;;;;;12.25;2.67;;;4.30;99.90;;;;;;4931957;29;20516;-78
2022/01/20 13:51:03;;;;;;;18.08;2.63;;;3.50;99.90;;;;;;4915049;29;20056;-78
2022/01/20 13:53:31;;;;;;;16.75;2.28;;;3.60;99.90;;;;;;4940208;29;20063;-74
2022/01/20 13:56:00;;;;;;;19.35;2.58;;;3.60;99.90;;;;;;4937590;29;20139;-76
2022/01/20 13:58:29;;;;;;;15.07;2.33;;;3.70;99.90;;;;;;4930813;29;20191;-77
2022/01/20 14:00:57;;;;;;;13.50;3.38;;;3.80;99.90;;;;;;4934673;29;20052;-75
2022/01/20 14:03:23;;;;;;;13.35;2.53;;;4.00;99.90;;;;;;4931288;29;20508;-75
2022/01/20 14:05:50;;;;;;;15.15;2.58;;;4.30;99.90;;;;;;4912280;29;20052;-77
2022/01/20 14:08:18;;;;;;;11.93;2.20;;;5.20;99.90;;;;;;4931839;29;20146;-74
2022/01/20 14:10:44;;;;;;;8.70;1.45;;;5.10;99.90;;;;;;4935007;29;20031;-75
2022/01/20 14:13:09;;;;;;;13.32;2.22;;;4.40;99.90;;;;;;4932533;29;20087;-73